Benicia, California
Current Conditions -  °F | °C
As of 7:53 AM on Friday 31 Oct 2014 (Local Time) from KCCR Reporting Station
Overcast Overcast  
Wind Chill: 63°   Ceiling: 4800
Heat Index: 63°   Visibility: 10mi
Dew Point: 53°   Wind: 9mph
Humidity: 70%   Direction: 200°SSW
Pressure: 29.86"   Gusts: NA
Location:  38.05°N, 122.15°W
Report Text: KCCR 311453Z 20008KT 10SM SCT030 BKN048 OVC120 17/12 A2986 RMK AO2 SLP098 T01720117 55000
Loading
Personal Weather Stations






























Interactive Weather Map
Tropical Storm Tracking
New forecast layout! Learn more

10-Day Weather Forecast

Advertisements
Track Severe Weather on mobile